Time;durP1;ratioP1;P1;durP2;ratioP2;P2;SDS_P1;SDS_P2;PMS_P1;PMS_P2;Temp;Humidity;BMP_temperature;BMP_pressure;BME280_temperature;BME280_humidity;BME280_pressure;Samples;Min_cycle;Max_cycle;Signal;HPM_P1;HPM_P2
2021/11/23 00:01:35;;;;;;;;;;;;;;;;;;5054570;28;19920;-73
2021/11/23 00:04:01;;;;;;;;;;;;;;;;;;5053158;28;19912;-73
2021/11/23 00:06:27;;;;;;;;;;;;;;;;;;5055149;28;20306;-73
2021/11/23 00:08:52;;;;;;;;;;;;;;;;;;5055008;28;19912;-73
2021/11/23 00:11:17;;;;;;;;;;;;;;;;;;5053670;28;19913;-74
2021/11/23 00:13:43;;;;;;;;;;;;;;;;;;5054671;28;19916;-74
2021/11/23 00:16:08;;;;;;;;;;;;;;;;;;5054287;28;20389;-73
2021/11/23 00:18:34;;;;;;;;;;;;;;;;;;5054909;28;19912;-73
2021/11/23 00:20:59;;;;;;;;;;;;;;;;;;5053539;28;19916;-73
2021/11/23 00:23:24;;;;;;;;;;;;;;;;;;5054234;28;20007;-73
2021/11/23 00:25:50;;;;;;;;;;;;;;;;;;5054629;28;19939;-73
2021/11/23 00:28:15;;;;;;;;;;;;;;;;;;5054061;28;19912;-73
2021/11/23 00:30:43;;;;;;;;;;;;;;;;;;5052884;28;19913;-73
2021/11/23 00:33:09;;;;;;;;;;;;;;;;;;5035386;28;19912;-73
2021/11/23 00:35:37;;;;;;;;;;;;;;;;;;5054645;28;19958;-73
2021/11/23 00:38:02;;;;;;;;;;;;;;;;;;5053536;28;19913;-73
2021/11/23 00:40:28;;;;;;;;;;;;;;;;;;5054626;28;19913;-73
2021/11/23 00:42:53;;;;;;;;;;;;;;;;;;5054497;28;19962;-73
2021/11/23 00:45:18;;;;;;;;;;;;;;;;;;5053039;28;20017;-73
2021/11/23 00:47:44;;;;;;;;;;;;;;;;;;5054421;28;20005;-73
2021/11/23 00:50:09;;;;;;;;;;;;;;;;;;5053997;28;19934;-73
2021/11/23 00:52:36;;;;;;;;;;;;;;;;;;5053685;28;20002;-73
2021/11/23 00:55:02;;;;;;;;;;;;;;;;;;5054342;28;20401;-73
2021/11/23 00:57:27;;;;;;;;;;;;;;;;;;5054329;28;19912;-73
2021/11/23 00:59:52;;;;;;;;;;;;;;;;;;5054270;28;20369;-73
2021/11/23 01:02:18;;;;;;;;;;;;;;;;;;5053513;28;19916;-73
2021/11/23 01:04:45;;;;;;;;;;;;;;;;;;5054009;28;20007;-73
2021/11/23 01:07:11;;;;;;;;;;;;;;;;;;5052680;28;19912;-73
2021/11/23 01:09:37;;;;;;;;;;;;;;;;;;5052916;28;19920;-73
2021/11/23 01:12:03;;;;;;;;;;;;;;;;;;5054136;28;20055;-73
2021/11/23 01:14:30;;;;;;;;;;;;;;;;;;5053865;28;20282;-73
2021/11/23 01:16:55;;;;;;;;;;;;;;;;;;5053954;28;19966;-73
2021/11/23 01:19:20;;;;;;;;;;;;;;;;;;5052969;28;19958;-73
2021/11/23 01:21:46;;;;;;;;;;;;;;;;;;5053664;28;19920;-73
2021/11/23 01:24:12;;;;;;;;;;;;;;;;;;5053766;28;19925;-73
2021/11/23 01:26:37;;;;;;;;;;;;;;;;;;5053022;28;19920;-73
2021/11/23 01:29:03;;;;;;;;;;;;;;;;;;5053993;28;19913;-73
2021/11/23 01:31:28;;;;;;;;;;;;;;;;;;5053799;28;19947;-73
2021/11/23 01:33:54;;;;;;;;;;;;;;;;;;5051482;28;19975;-73
2021/11/23 01:36:19;;;;;;;;;;;;;;;;;;5053847;28;19916;-73
2021/11/23 01:38:45;;;;;;;;;;;;;;;;;;5053737;28;19938;-73
2021/11/23 01:41:10;;;;;;;;;;;;;;;;;;5053527;28;19919;-73
2021/11/23 01:43:36;;;;;;;;;;;;;;;;;;5052729;28;19959;-73
2021/11/23 01:46:01;;;;;;;;;;;;;;;;;;5053133;28;19999;-74
2021/11/23 01:48:26;;;;;;;;;;;;;;;;;;5053287;28;20594;-74
2021/11/23 01:50:52;;;;;;;;;;;;;;;;;;5053601;28;19913;-74
2021/11/23 01:53:17;;;;;;;;;;;;;;;;;;5052736;28;20003;-73
2021/11/23 01:55:43;;;;;;;;;;;;;;;;;;5053118;28;20004;-73
2021/11/23 01:58:10;;;;;;;;;;;;;;;;;;5053595;28;20310;-73
2021/11/23 02:00:35;;;;;;;;;;;;;;;;;;5053301;28;20389;-73
2021/11/23 02:03:01;;;;;;;;;;;;;;;;;;5053439;28;19917;-73
2021/11/23 02:05:26;;;;;;;;;;;;;;;;;;5052678;28;20023;-73
2021/11/23 02:07:52;;;;;;;;;;;;;;;;;;5053526;28;19919;-73
2021/11/23 02:10:17;;;;;;;;;;;;;;;;;;5052242;28;19913;-73
2021/11/23 02:12:42;;;;;;;;;;;;;;;;;;5052333;28;19920;-73
2021/11/23 02:15:09;;;;;;;;;;;;;;;;;;5052980;28;20361;-74
2021/11/23 02:17:34;;;;;;;;;;;;;;;;;;5053040;28;19912;-73
2021/11/23 02:20:01;;;;;;;;;;;;;;;;;;5053740;28;20550;-73
2021/11/23 02:22:27;;;;;;;;;;;;;;;;;;5052512;28;19920;-73
2021/11/23 02:24:52;;;;;;;;;;;;;;;;;;5053467;28;19913;-73
2021/11/23 02:27:17;;;;;;;;;;;;;;;;;;5053379;28;20282;-73
2021/11/23 02:29:43;;;;;;;;;;;;;;;;;;5053109;28;20045;-74
2021/11/23 02:32:08;;;;;;;;;;;;;;;;;;5052851;28;19913;-73
2021/11/23 02:34:33;;;;;;;;;;;;;;;;;;5052256;28;19965;-73
2021/11/23 02:36:59;;;;;;;;;;;;;;;;;;5053016;28;19916;-73
2021/11/23 02:39:24;;;;;;;;;;;;;;;;;;5053168;28;20084;-73
2021/11/23 02:41:50;;;;;;;;;;;;;;;;;;5052847;28;19956;-73
2021/11/23 02:44:15;;;;;;;;;;;;;;;;;;5052686;28;19940;-73
2021/11/23 02:46:41;;;;;;;;;;;;;;;;;;5052808;28;19916;-73
2021/11/23 02:49:06;;;;;;;;;;;;;;;;;;5052863;28;19917;-73
2021/11/23 02:51:34;;;;;;;;;;;;;;;;;;5052220;28;20358;-74
2021/11/23 02:54:00;;;;;;;;;;;;;;;;;;5052987;28;19912;-73
2021/11/23 02:56:25;;;;;;;;;;;;;;;;;;5056493;28;19912;-73
2021/11/23 02:58:51;;;;;;;;;;;;;;;;;;5056620;28;19912;-74
2021/11/23 03:01:19;;;;;;;;;;;;;;;;;;5056310;28;19959;-73
2021/11/23 03:03:44;;;;;;;;;;;;;;;;;;5056452;28;20320;-73
2021/11/23 03:06:13;;;;;;;;;;;;;;;;;;5053865;28;19999;-73
2021/11/23 03:08:39;;;;;;;;;;;;;;;;;;5056421;28;20379;-73
2021/11/23 03:11:04;;;;;;;;;;;;;;;;;;5056308;28;20004;-73
2021/11/23 03:13:32;;;;;;;;;;;;;;;;;;5056235;28;19920;-72
2021/11/23 03:15:58;;;;;;;;;;;;;;;;;;5055966;28;19912;-73
2021/11/23 03:18:23;;;;;;;;;;;;;;;;;;5056351;28;19912;-73
2021/11/23 03:20:50;;;;;;;;;;;;;;;;;;5055821;28;20355;-73
2021/11/23 03:23:16;;;;;;;;;;;;;;;;;;5056068;28;19917;-73
2021/11/23 03:25:41;;;;;;;;;;;;;;;;;;5055760;28;19921;-73
2021/11/23 03:28:06;;;;;;;;;;;;;;;;;;5054741;28;20007;-73
2021/11/23 03:30:32;;;;;;;;;;;;;;;;;;5055920;28;19912;-73
2021/11/23 03:32:58;;;;;;;;;;;;;;;;;;5056050;28;19912;-73
2021/11/23 03:35:25;;;;;;;;;;;;;;;;;;5055666;28;19913;-73
2021/11/23 03:37:52;;;;;;;;;;;;;;;;;;5055784;28;19928;-73
2021/11/23 03:40:18;;;;;;;;;;;;;;;;;;5055046;28;20278;-73
2021/11/23 03:42:43;;;;;;;;;;;;;;;;;;5055093;28;20302;-73
2021/11/23 03:45:09;;;;;;;;;;;;;;;;;;5055173;28;19917;-74
2021/11/23 03:47:35;;;;;;;;;;;;;;;;;;5055313;28;19913;-73
2021/11/23 03:50:01;;;;;;;;;;;;;;;;;;5055486;28;20377;-77
2021/11/23 03:52:26;;;;;;;;;;;;;;;;;;5055512;28;20015;-77
2021/11/23 03:54:52;;;;;;;;;;;;;;;;;;5037256;28;19935;-74
2021/11/23 03:57:18;;;;;;;;;;;;;;;;;;5055030;28;19927;-74
2021/11/23 03:59:47;;;;;;;;;;;;;;;;;;5055206;28;19955;-74
2021/11/23 04:02:13;;;;;;;;;;;;;;;;;;5054856;28;19917;-74
2021/11/23 04:04:38;;;;;;;;;;;;;;;;;;5054995;28;20370;-74
2021/11/23 04:07:04;;;;;;;;;;;;;;;;;;5055287;28;19919;-74
2021/11/23 04:09:29;;;;;;;;;;;;;;;;;;5054736;28;20056;-75
2021/11/23 04:11:54;;;;;;;;;;;;;;;;;;5054353;28;20351;-75
2021/11/23 04:14:20;;;;;;;;;;;;;;;;;;5054862;28;19913;-75
2021/11/23 04:16:45;;;;;;;;;;;;;;;;;;5055137;28;20380;-74
2021/11/23 04:19:10;;;;;;;;;;;;;;;;;;5054887;28;19919;-75
2021/11/23 04:21:36;;;;;;;;;;;;;;;;;;5054980;28;20355;-75
2021/11/23 04:24:01;;;;;;;;;;;;;;;;;;5054687;28;19936;-75
2021/11/23 04:26:26;;;;;;;;;;;;;;;;;;5054536;28;19916;-75
2021/11/23 04:28:52;;;;;;;;;;;;;;;;;;5054734;28;19920;-75
2021/11/23 04:31:17;;;;;;;;;;;;;;;;;;5054963;28;19960;-75
2021/11/23 04:33:42;;;;;;;;;;;;;;;;;;5054456;28;19917;-74
2021/11/23 04:36:08;;;;;;;;;;;;;;;;;;5054737;28;20355;-74
2021/11/23 04:38:33;;;;;;;;;;;;;;;;;;5054517;28;19919;-75
2021/11/23 04:40:58;;;;;;;;;;;;;;;;;;5054639;28;20377;-74
2021/11/23 04:43:24;;;;;;;;;;;;;;;;;;5054310;28;20389;-74
2021/11/23 04:45:49;;;;;;;;;;;;;;;;;;5053387;28;19920;-75
2021/11/23 04:48:15;;;;;;;;;;;;;;;;;;5054433;28;19912;-75
2021/11/23 04:50:40;;;;;;;;;;;;;;;;;;5053432;28;20369;-75
2021/11/23 04:53:08;;;;;;;;;;;;;;;;;;5054375;28;20333;-75
2021/11/23 04:55:33;;;;;;;;;;;;;;;;;;5054498;28;19913;-74
2021/11/23 04:57:58;;;;;;;;;;;;;;;;;;5054124;28;19912;-75
2021/11/23 05:00:24;;;;;;;;;;;;;;;;;;5053034;28;19927;-75
2021/11/23 05:02:50;;;;;;;;;;;;;;;;;;5054332;28;19917;-75
2021/11/23 05:05:15;;;;;;;;;;;;;;;;;;5053958;28;19958;-75
2021/11/23 05:07:41;;;;;;;;;;;;;;;;;;5054279;28;19966;-75
2021/11/23 05:10:08;;;;;;;;;;;;;;;;;;5054018;28;19923;-75
2021/11/23 05:12:33;;;;;;;;;;;;;;;;;;5053897;28;19959;-75
2021/11/23 05:14:59;;;;;;;;;;;;;;;;;;5053885;28;19955;-75
2021/11/23 05:17:24;;;;;;;;;;;;;;;;;;5053671;28;19916;-75
2021/11/23 05:19:49;;;;;;;;;;;;;;;;;;5053201;28;20392;-75
2021/11/23 05:22:15;;;;;;;;;;;;;;;;;;5053847;28;20370;-75
2021/11/23 05:24:40;;;;;;;;;;;;;;;;;;5053726;28;19909;-75
2021/11/23 05:27:07;;;;;;;;;;;;;;;;;;5053610;28;19916;-75
2021/11/23 05:29:32;;;;;;;;;;;;;;;;;;5053797;28;19915;-75
2021/11/23 05:31:57;;;;;;;;;;;;;;;;;;5053723;28;19913;-75
2021/11/23 05:34:22;;;;;;;;;;;;;;;;;;5053113;28;20046;-75
2021/11/23 05:36:48;;;;;;;;;;;;;;;;;;5053827;28;19913;-75
2021/11/23 05:39:13;;;;;;;;;;;;;;;;;;5052444;28;19955;-75
2021/11/23 05:41:39;;;;;;;;;;;;;;;;;;5053587;28;19985;-75
2021/11/23 05:44:05;;;;;;;;;;;;;;;;;;5051815;28;19920;-75
2021/11/23 05:46:30;;;;;;;;;;;;;;;;;;5053461;28;20271;-75
2021/11/23 05:48:56;;;;;;;;;;;;;;;;;;5052615;28;19981;-75
2021/11/23 05:51:21;;;;;;;;;;;;;;;;;;5051779;28;19952;-75
2021/11/23 05:53:47;;;;;;;;;;;;;;;;;;5053406;28;19923;-75
2021/11/23 05:56:12;;;;;;;;;;;;;;;;;;5053431;28;19919;-75
2021/11/23 05:58:37;;;;;;;;;;;;;;;;;;5053358;28;19912;-75
2021/11/23 06:01:03;;;;;;;;;;;;;;;;;;5053673;28;20414;-75
2021/11/23 06:03:29;;;;;;;;;;;;;;;;;;5053319;28;19916;-75
2021/11/23 06:05:54;;;;;;;;;;;;;;;;;;5052119;28;19936;-75
2021/11/23 06:08:19;;;;;;;;;;;;;;;;;;5052463;28;19931;-75
2021/11/23 06:10:45;;;;;;;;;;;;;;;;;;5052765;28;19920;-75
2021/11/23 06:13:11;;;;;;;;;;;;;;;;;;5052971;28;19928;-75
2021/11/23 06:15:38;;;;;;;;;;;;;;;;;;5053148;28;19917;-75
2021/11/23 06:18:04;;;;;;;;;;;;;;;;;;5053120;28;19992;-75
2021/11/23 06:20:30;;;;;;;;;;;;;;;;;;5053291;28;20338;-75
2021/11/23 06:22:56;;;;;;;;;;;;;;;;;;5053091;28;19917;-75
2021/11/23 06:25:21;;;;;;;;;;;;;;;;;;5053264;28;19919;-75
2021/11/23 06:27:46;;;;;;;;;;;;;;;;;;5053295;28;20291;-76
2021/11/23 06:30:12;;;;;;;;;;;;;;;;;;5055021;28;19913;-75
2021/11/23 06:32:37;;;;;;;;;;;;;;;;;;5057139;28;19913;-76
2021/11/23 06:35:03;;;;;;;;;;;;;;;;;;5057050;28;20346;-76
2021/11/23 06:37:28;;;;;;;;;;;;;;;;;;5055786;28;20416;-75
2021/11/23 06:39:54;;;;;;;;;;;;;;;;;;5055159;28;19919;-75
2021/11/23 06:42:19;;;;;;;;;;;;;;;;;;5056740;28;20010;-76
2021/11/23 06:44:45;;;;;;;;;;;;;;;;;;5056678;28;19924;-76
2021/11/23 06:47:10;;;;;;;;;;;;;;;;;;5056820;28;19948;-75
2021/11/23 06:49:35;;;;;;;;;;;;;;;;;;5056695;28;20260;-75
2021/11/23 06:52:01;;;;;;;;;;;;;;;;;;5056821;28;19913;-75
2021/11/23 06:54:26;;;;;;;;;;;;;;;;;;5056113;28;20289;-75
2021/11/23 06:56:55;;;;;;;;;;;;;;;;;;5056652;28;19917;-75
2021/11/23 06:59:21;;;;;;;;;;;;;;;;;;5056524;28;19959;-75
2021/11/23 07:01:46;;;;;;;;;;;;;;;;;;5056513;28;19920;-75
2021/11/23 07:04:12;;;;;;;;;;;;;;;;;;5056366;28;19956;-74
2021/11/23 07:06:37;;;;;;;;;;;;;;;;;;5054145;28;19954;-75
2021/11/23 07:09:02;;;;;;;;;;;;;;;;;;5056329;28;19955;-75
2021/11/23 07:11:28;;;;;;;;;;;;;;;;;;5056022;28;19913;-75
2021/11/23 07:13:53;;;;;;;;;;;;;;;;;;5056306;28;19912;-75
2021/11/23 07:16:18;;;;;;;;;;;;;;;;;;5056484;28;19966;-75
2021/11/23 07:18:43;;;;;;;;;;;;;;;;;;5056184;28;19919;-75
2021/11/23 07:21:09;;;;;;;;;;;;;;;;;;5056474;28;19960;-75
2021/11/23 07:23:34;;;;;;;;;;;;;;;;;;5055196;28;20370;-75
2021/11/23 07:25:59;;;;;;;;;;;;;;;;;;5055989;28;19913;-75
2021/11/23 07:28:25;;;;;;;;;;;;;;;;;;5055889;28;19920;-75
2021/11/23 07:30:54;;;;;;;;;;;;;;;;;;5055940;28;19913;-75
2021/11/23 07:33:19;;;;;;;;;;;;;;;;;;5055954;28;20392;-75
2021/11/23 07:35:44;;;;;;;;;;;;;;;;;;5056071;28;19913;-75
2021/11/23 07:38:10;;;;;;;;;;;;;;;;;;5053789;28;19955;-75
2021/11/23 07:40:35;;;;;;;;;;;;;;;;;;5055332;28;20363;-75
2021/11/23 07:43:00;;;;;;;;;;;;;;;;;;5037935;28;19935;-75
2021/11/23 07:45:26;;;;;;;;;;;;;;;;;;5055439;28;20409;-74
2021/11/23 07:47:51;;;;;;;;;;;;;;;;;;5055621;28;19912;-74
2021/11/23 07:50:17;;;;;;;;;;;;;;;;;;5055497;28;19962;-74
2021/11/23 07:52:42;;;;;;;;;;;;;;;;;;5055500;28;19912;-75
2021/11/23 07:55:08;;;;;;;;;;;;;;;;;;5055355;28;19919;-75
2021/11/23 07:57:34;;;;;;;;;;;;;;;;;;5054742;28;19912;-75
2021/11/23 07:59:59;;;;;;;;;;;;;;;;;;5054090;28;19913;-74
2021/11/23 08:02:25;;;;;;;;;;;;;;;;;;5054399;28;19963;-76
2021/11/23 08:04:50;;;;;;;;;;;;;;;;;;5055097;28;20307;-75
2021/11/23 08:07:15;;;;;;;;;;;;;;;;;;5055165;28;19958;-75
2021/11/23 08:09:43;;;;;;;;;;;;;;;;;;5054311;28;19920;-75
2021/11/23 08:12:09;;;;;;;;;;;;;;;;;;5055303;28;19923;-75
2021/11/23 08:14:34;;;;;;;;;;;;;;;;;;5052859;28;19916;-76
2021/11/23 08:16:59;;;;;;;;;;;;;;;;;;5054984;28;19913;-76
2021/11/23 08:19:25;;;;;;;;;;;;;;;;;;5054972;28;19913;-76
2021/11/23 08:21:50;;;;;;;;;;;;;;;;;;5054998;28;20004;-77
2021/11/23 08:24:15;;;;;;;;;;;;;;;;;;5054686;28;19912;-77
2021/11/23 08:26:41;;;;;;;;;;;;;;;;;;5054021;28;19913;-77
2021/11/23 08:29:06;;;;;;;;;;;;;;;;;;5044635;28;19913;-76
2021/11/23 08:31:32;;;;;;;;;;;;;;;;;;5035035;28;20379;-76
2021/11/23 08:34:03;;;;;;;;;;;;;;;;;;5034896;28;19913;-77
2021/11/23 08:36:28;;;;;;;;;;;;;;;;;;5034974;28;19956;-77
2021/11/23 08:38:54;;;;;;;;;;;;;;;;;;5038367;28;20393;-76
2021/11/23 08:41:19;;;;;;;;;;;;;;;;;;5074686;28;19920;-75
2021/11/23 08:43:44;;;;;;;;;;;;;;;;;;5074006;28;19999;-75
2021/11/23 08:46:10;;;;;;;;;;;;;;;;;;5074502;28;19923;-75
2021/11/23 08:48:35;;;;;;;;;;;;;;;;;;5067531;28;19913;-74
2021/11/23 08:51:01;;;;;;;;;;;;;;;;;;5054539;28;19917;-77
2021/11/23 08:53:26;;;;;;;;;;;;;;;;;;5054702;28;19920;-76
2021/11/23 08:55:51;;;;;;;;;;;;;;;;;;5053118;28;20278;-74
2021/11/23 08:58:17;;;;;;;;;;;;;;;;;;5053494;28;19917;-76
2021/11/23 09:00:43;;;;;;;;;;;;;;;;;;5054256;28;19919;-77
2021/11/23 09:03:09;;;;;;;;;;;;;;;;;;5053367;28;20278;-77
2021/11/23 09:05:36;;;;;;;;;;;;;;;;;;5054251;28;19934;-74
2021/11/23 09:08:02;;;;;;;;;;;;;;;;;;5054022;28;19912;-77
2021/11/23 09:10:29;;;;;;;;;;;;;;;;;;5054085;28;20274;-77
2021/11/23 09:12:59;;;;;;;;;;;;;;;;;;5054256;28;20314;-76
2021/11/23 09:15:25;;;;;;;;;;;;;;;;;;5054025;28;19967;-76
2021/11/23 09:17:50;;;;;;;;;;;;;;;;;;5053944;28;19913;-76
2021/11/23 09:20:16;;;;;;;;;;;;;;;;;;5053912;28;19966;-76
2021/11/23 09:22:42;;;;;;;;;;;;;;;;;;5053725;28;19917;-76
2021/11/23 09:25:09;;;;;;;;;;;;;;;;;;5053402;28;20042;-76
2021/11/23 09:27:34;;;;;;;;;;;;;;;;;;5052070;28;20328;-75
2021/11/23 09:30:00;;;;;;;;;;;;;;;;;;5053518;28;20004;-78
2021/11/23 09:32:25;;;;;;;;;;;;;;;;;;5054197;28;20011;-77
2021/11/23 09:34:51;;;;;;;;;;;;;;;;;;5052817;28;20007;-77
2021/11/23 09:37:16;;;;;;;;;;;;;;;;;;5052147;28;19916;-75
2021/11/23 09:39:42;;;;;;;;;;;;;;;;;;5043070;28;20335;-75
2021/11/23 09:42:07;;;;;;;;;;;;;;;;;;5042243;28;19917;-75
2021/11/23 09:44:35;;;;;;;;;;;;;;;;;;5042535;28;19971;-75
2021/11/23 09:47:01;;;;;;;;;;;;;;;;;;5042436;28;19920;-75
2021/11/23 09:49:27;;;;;;;;;;;;;;;;;;5043018;28;19917;-76
2021/11/23 09:51:52;;;;;;;;;;;;;;;;;;5041648;28;20357;-76
2021/11/23 09:54:18;;;;;;;;;;;;;;;;;;5044365;28;20274;-76
2021/11/23 09:56:46;;;;;;;;;;;;;;;;;;5042034;28;19920;-75
2021/11/23 09:59:12;;;;;;;;;;;;;;;;;;5042549;28;19913;-75
2021/11/23 10:01:56;;;;;;;;;;;;;;;;;;5044078;28;19943;-75
2021/11/23 10:04:24;;;;;;;;;;;;;;;;;;5045915;28;20034;-75
2021/11/23 10:07:17;;;;;;;;;;;;;;;;;;5046848;28;19913;-75
2021/11/23 10:09:43;;;;;;;;;;;;;;;;;;5046038;28;19942;-75
2021/11/23 10:12:11;;;;;;;;;;;;;;;;;;5047180;28;19956;-75
2021/11/23 10:14:37;;;;;;;;;;;;;;;;;;5045679;28;20644;-75
2021/11/23 10:17:02;;;;;;;;;;;;;;;;;;5047559;28;19909;-75
2021/11/23 10:19:35;;;;;;;;;;;;;;;;;;5046491;28;19920;-75
2021/11/23 10:22:00;;;;;;;;;;;;;;;;;;5046664;28;19917;-75
2021/11/23 10:24:25;;;;;;;;;;;;;;;;;;5047241;28;20380;-75
2021/11/23 10:26:53;;;;;;;;;;;;;;;;;;5047345;28;19913;-77
2021/11/23 10:29:18;;;;;;;;;;;;;;;;;;5045430;28;19939;-77
2021/11/23 10:31:45;;;;;;;;;;;;;;;;;;5035535;28;19912;-76
2021/11/23 10:34:14;;;;;;;;;;;;;;;;;;5046454;28;19955;-76
2021/11/23 10:36:41;;;;;;;;;;;;;;;;;;5046882;28;20301;-75
2021/11/23 10:39:10;;;;;;;;;;;;;;;;;;5044374;28;19960;-76
2021/11/23 10:41:35;;;;;;;;;;;;;;;;;;5047226;28;19991;-76
2021/11/23 10:44:02;;;;;;;;;;;;;;;;;;5047370;28;20027;-76
2021/11/23 10:46:30;;;;;;;;;;;;;;;;;;5047122;28;19912;-76
2021/11/23 10:48:57;;;;;;;;;;;;;;;;;;5045706;28;19913;-75
2021/11/23 10:51:23;;;;;;;;;;;;;;;;;;5046356;28;19965;-75
2021/11/23 10:53:49;;;;;;;;;;;;;;;;;;5046371;28;19940;-75
2021/11/23 10:56:16;;;;;;;;;;;;;;;;;;5045246;28;19912;-77
2021/11/23 10:58:42;;;;;;;;;;;;;;;;;;5056939;28;19963;-76
2021/11/23 11:01:10;;;;;;;;;;;;;;;;;;5057154;28;19924;-75
2021/11/23 11:03:35;;;;;;;;;;;;;;;;;;5064249;28;19919;-77
2021/11/23 11:06:02;;;;;;;;;;;;;;;;;;5076548;28;19913;-76
2021/11/23 11:08:32;;;;;;;;;;;;;;;;;;5072657;28;19917;-77
2021/11/23 11:10:57;;;;;;;;;;;;;;;;;;5056656;28;20274;-77
2021/11/23 11:13:23;;;;;;;;;;;;;;;;;;5057100;28;19912;-78
2021/11/23 11:15:50;;;;;;;;;;;;;;;;;;5055956;28;19913;-77
2021/11/23 11:18:17;;;;;;;;;;;;;;;;;;5056846;28;19913;-78
2021/11/23 11:20:42;;;;;;;;;;;;;;;;;;5057302;28;19927;-76
2021/11/23 11:23:13;;;;;;;;;;;;;;;;;;5055203;28;20282;-75
2021/11/23 11:25:55;;;;;;;;;;;;;;;;;;5056054;28;19919;-74
2021/11/23 11:28:36;;;;;;;;;;;;;;;;;;5055900;28;19913;-75
2021/11/23 11:31:06;;;;;;;;;;;;;;;;;;5055924;28;19917;-75
2021/11/23 11:33:32;;;;;;;;;;;;;;;;;;5055929;28;19913;-75
2021/11/23 11:35:57;;;;;;;;;;;;;;;;;;5046153;28;19917;-75
2021/11/23 11:38:26;;;;;;;;;;;;;;;;;;5054815;28;19919;-75
2021/11/23 11:40:52;;;;;;;;;;;;;;;;;;5055803;28;20309;-75
2021/11/23 11:43:17;;;;;;;;;;;;;;;;;;5055645;28;19963;-75
2021/11/23 11:45:47;;;;;;;;;;;;;;;;;;5055687;28;20313;-75
2021/11/23 11:48:34;;;;;;;;;;;;;;;;;;5055818;28;20019;-75
2021/11/23 11:51:00;;;;;;;;;;;;;;;;;;5055002;28;19913;-75
2021/11/23 11:53:29;;;;;;;;;;;;;;;;;;5054121;28;19919;-75
2021/11/23 11:55:54;;;;;;;;;;;;;;;;;;5054956;28;19913;-75
2021/11/23 11:58:44;;;;;;;;;;;;;;;;;;5055349;28;19912;-75
2021/11/23 12:01:20;;;;;;;;;;;;;;;;;;5049774;28;19965;-75
2021/11/23 12:03:58;;;;;;;;;;;;;;;;;;5054277;28;19917;-75
2021/11/23 12:06:23;;;;;;;;;;;;;;;;;;5054161;28;19912;-75
2021/11/23 12:08:49;;;;;;;;;;;;;;;;;;5054364;28;20298;-75
2021/11/23 12:11:14;;;;;;;;;;;;;;;;;;5055245;28;19920;-75
2021/11/23 12:13:40;;;;;;;;;;;;;;;;;;5053814;28;19919;-75
2021/11/23 12:16:07;;;;;;;;;;;;;;;;;;5053486;28;19912;-75
2021/11/23 12:18:32;;;;;;;;;;;;;;;;;;5055107;28;19962;-75
2021/11/23 12:21:03;;;;;;;;;;;;;;;;;;5055247;28;19951;-75
2021/11/23 12:23:49;;;;;;;;;;;;;;;;;;5054852;28;19917;-75
2021/11/23 12:26:16;;;;;;;;;;;;;;;;;;5054957;28;19919;-75
2021/11/23 12:28:56;;;;;;;;;;;;;;;;;;5054813;28;19913;-75
2021/11/23 12:31:22;;;;;;;;;;;;;;;;;;5054833;28;19913;-75
2021/11/23 12:33:49;;;;;;;;;;;;;;;;;;5054574;28;19916;-75
2021/11/23 12:36:17;;;;;;;;;;;;;;;;;;5054683;28;19939;-75
2021/11/23 12:38:43;;;;;;;;;;;;;;;;;;5052602;28;19916;-75
2021/11/23 12:41:16;;;;;;;;;;;;;;;;;;5054407;28;19939;-75
2021/11/23 12:43:41;;;;;;;;;;;;;;;;;;5054101;28;19920;-75
2021/11/23 12:46:18;;;;;;;;;;;;;;;;;;5054454;28;19928;-75
2021/11/23 12:48:45;;;;;;;;;;;;;;;;;;5054520;28;19921;-75
2021/11/23 12:51:14;;;;;;;;;;;;;;;;;;5054607;28;19920;-75
2021/11/23 12:53:46;;;;;;;;;;;;;;;;;;5054080;28;19915;-75
2021/11/23 12:56:11;;;;;;;;;;;;;;;;;;5054501;28;19919;-75
2021/11/23 12:58:37;;;;;;;;;;;;;;;;;;5053063;28;20422;-75
2021/11/23 13:01:03;;;;;;;;;;;;;;;;;;5054407;28;19913;-75
2021/11/23 13:03:29;;;;;;;;;;;;;;;;;;5053403;28;19916;-75
2021/11/23 13:05:54;;;;;;;;;;;;;;;;;;5054421;28;19913;-75
2021/11/23 13:08:20;;;;;;;;;;;;;;;;;;5054179;28;20307;-75
2021/11/23 13:10:47;;;;;;;;;;;;;;;;;;5053711;28;19912;-75
2021/11/23 13:13:22;;;;;;;;;;;;;;;;;;5053956;28;19935;-75
2021/11/23 13:15:49;;;;;;;;;;;;;;;;;;5054144;28;20436;-75
2021/11/23 13:18:16;;;;;;;;;;;;;;;;;;5053935;28;19944;-75
2021/11/23 13:20:50;;;;;;;;;;;;;;;;;;5054082;28;20337;-75
2021/11/23 13:23:24;;;;;;;;;;;;;;;;;;5052352;28;20433;-75
2021/11/23 13:26:11;;;;;;;;;;;;;;;;;;5053713;28;19947;-75
2021/11/23 13:28:38;;;;;;;;;;;;;;;;;;5053755;28;19913;-75
2021/11/23 13:31:05;;;;;;;;;;;;;;;;;;5054002;28;19916;-75
2021/11/23 13:33:33;;;;;;;;;;;;;;;;;;5053977;28;20328;-75
2021/11/23 13:36:01;;;;;;;;;;;;;;;;;;5053806;28;19913;-75
2021/11/23 13:38:31;;;;;;;;;;;;;;;;;;5053355;28;19970;-75
2021/11/23 13:40:56;;;;;;;;;;;;;;;;;;5052748;28;19913;-76
2021/11/23 13:43:22;;;;;;;;;;;;;;;;;;5053489;28;19916;-72
2021/11/23 13:45:57;;;;;;;;;;;;;;;;;;5053457;28;19975;-74
2021/11/23 13:48:23;;;;;;;;;;;;;;;;;;5053672;28;19920;-74
2021/11/23 13:50:57;;;;;;;;;;;;;;;;;;5053562;28;19913;-74
2021/11/23 13:53:22;;;;;;;;;;;;;;;;;;5052692;28;19912;-74
2021/11/23 13:55:48;;;;;;;;;;;;;;;;;;5052992;28;20011;-74
2021/11/23 13:58:13;;;;;;;;;;;;;;;;;;5051817;28;20051;-74
2021/11/23 14:00:39;;;;;;;;;;;;;;;;;;5052739;28;20007;-74
2021/11/23 14:03:08;;;;;;;;;;;;;;;;;;5047983;28;19967;-73
2021/11/23 14:05:46;;;;;;;;;;;;;;;;;;5039801;28;19921;-74
2021/11/23 14:08:13;;;;;;;;;;;;;;;;;;5043078;28;20393;-74
2021/11/23 14:10:40;;;;;;;;;;;;;;;;;;5053374;28;20373;-74
2021/11/23 14:13:07;;;;;;;;;;;;;;;;;;5035741;28;20289;-74
2021/11/23 14:15:36;;;;;;;;;;;;;;;;;;5053436;28;19952;-74
2021/11/23 14:18:04;;;;;;;;;;;;;;;;;;5053361;28;20385;-73
2021/11/23 14:20:30;;;;;;;;;;;;;;;;;;5051813;28;19935;-75
2021/11/23 14:22:59;;;;;;;;;;;;;;;;;;5053255;28;20394;-77
2021/11/23 14:25:25;;;;;;;;;;;;;;;;;;5054259;28;19909;-78
2021/11/23 14:27:51;;;;;;;;;;;;;;;;;;5053074;28;20271;-74
2021/11/23 14:30:16;;;;;;;;;;;;;;;;;;5052349;28;19913;-74
2021/11/23 14:32:42;;;;;;;;;;;;;;;;;;5046060;28;19919;-74
2021/11/23 14:35:07;;;;;;;;;;;;;;;;;;5042211;28;19940;-74
2021/11/23 14:37:32;;;;;;;;;;;;;;;;;;5042441;28;19918;-74
2021/11/23 14:39:58;;;;;;;;;;;;;;;;;;5034618;28;19913;-74
2021/11/23 14:42:23;;;;;;;;;;;;;;;;;;5033219;28;19968;-74
2021/11/23 14:44:48;;;;;;;;;;;;;;;;;;5043804;28;19963;-74
2021/11/23 14:47:15;;;;;;;;;;;;;;;;;;5052650;28;19916;-74
2021/11/23 14:49:41;;;;;;;;;;;;;;;;;;5042874;28;20315;-74
2021/11/23 14:52:07;;;;;;;;;;;;;;;;;;5046306;28;19917;-74
2021/11/23 14:54:32;;;;;;;;;;;;;;;;;;5045449;28;19913;-74
2021/11/23 14:56:57;;;;;;;;;;;;;;;;;;5053758;28;19919;-74
2021/11/23 14:59:23;;;;;;;;;;;;;;;;;;5055742;28;19912;-72
2021/11/23 15:01:48;;;;;;;;;;;;;;;;;;5056600;28;19991;-74
2021/11/23 15:04:14;;;;;;;;;;;;;;;;;;5056382;28;19909;-74
2021/11/23 15:06:39;;;;;;;;;;;;;;;;;;5055142;28;19913;-74
2021/11/23 15:09:04;;;;;;;;;;;;;;;;;;5045355;28;19955;-74
2021/11/23 15:11:31;;;;;;;;;;;;;;;;;;5044210;28;19920;-74
2021/11/23 15:13:58;;;;;;;;;;;;;;;;;;5037624;28;20002;-73
2021/11/23 15:16:23;;;;;;;;;;;;;;;;;;5035884;28;20421;-74
2021/11/23 15:18:49;;;;;;;;;;;;;;;;;;5036280;28;19948;-74
2021/11/23 15:21:18;;;;;;;;;;;;;;;;;;5035822;28;19986;-74
2021/11/23 15:23:43;;;;;;;;;;;;;;;;;;5039694;28;20422;-74
2021/11/23 15:26:08;;;;;;;;;;;;;;;;;;5056099;28;19995;-74
2021/11/23 15:28:34;;;;;;;;;;;;;;;;;;5056000;28;20011;-74
2021/11/23 15:30:59;;;;;;;;;;;;;;;;;;5056099;28;19913;-74
2021/11/23 15:33:24;;;;;;;;;;;;;;;;;;5055270;28;19920;-74
2021/11/23 15:35:50;;;;;;;;;;;;;;;;;;5056022;28;20288;-74
2021/11/23 15:38:15;;;;;;;;;;;;;;;;;;5055682;28;19913;-74
2021/11/23 15:40:40;;;;;;;;;;;;;;;;;;5056067;28;20003;-74
2021/11/23 15:43:06;;;;;;;;;;;;;;;;;;5055807;28;20013;-74
2021/11/23 15:45:31;;;;;;;;;;;;;;;;;;5054784;28;19960;-74
2021/11/23 15:47:58;;;;;;;;;;;;;;;;;;5055723;28;20357;-74
2021/11/23 15:50:24;;;;;;;;;;;;;;;;;;5055802;28;19913;-74
2021/11/23 15:52:50;;;;;;;;;;;;;;;;;;5055663;28;19919;-74
2021/11/23 15:55:15;;;;;;;;;;;;;;;;;;5054849;28;19999;-75
2021/11/23 15:57:41;;;;;;;;;;;;;;;;;;5055041;28;19964;-74
2021/11/23 16:00:08;;;;;;;;;;;;;;;;;;5055529;28;19913;-74
2021/11/23 16:02:34;;;;;;;;;;;;;;;;;;5055095;28;19916;-74
2021/11/23 16:04:59;;;;;;;;;;;;;;;;;;5053340;28;19919;-74
2021/11/23 16:07:26;;;;;;;;;;;;;;;;;;5055073;28;19920;-75
2021/11/23 16:09:52;;;;;;;;;;;;;;;;;;5055023;28;19928;-74
2021/11/23 16:12:17;;;;;;;;;;;;;;;;;;5054943;28;19951;-74
2021/11/23 16:14:43;;;;;;;;;;;;;;;;;;5039503;28;19948;-73
2021/11/23 16:17:08;;;;;;;;;;;;;;;;;;5034989;28;19913;-74
2021/11/23 16:19:33;;;;;;;;;;;;;;;;;;5035027;28;19917;-74
2021/11/23 16:21:59;;;;;;;;;;;;;;;;;;5035049;28;20059;-74
2021/11/23 16:24:25;;;;;;;;;;;;;;;;;;5035031;28;19955;-74
2021/11/23 16:26:52;;;;;;;;;;;;;;;;;;5034163;28;20096;-74
2021/11/23 16:29:19;;;;;;;;;;;;;;;;;;5033855;28;19917;-73
2021/11/23 16:31:45;;;;;;;;;;;;;;;;;;5035026;28;19959;-74
2021/11/23 16:34:10;;;;;;;;;;;;;;;;;;5045202;28;19920;-74
2021/11/23 16:36:36;;;;;;;;;;;;;;;;;;5054811;28;19959;-74
2021/11/23 16:39:02;;;;;;;;;;;;;;;;;;5054991;28;19964;-74
2021/11/23 16:41:28;;;;;;;;;;;;;;;;;;5054821;28;19923;-74